WFLO2: Webbers Falls Lock & Dam & Reservoir (L&D 16)

Data processed at Sat Dec 09 2017 23:31


All information presented herein is the property of the government of the United States of America and may be revised or deleted at any time without prior notice.
Dissemination of this information without the expressed written consent of the Public Affairs Office, Tulsa District U.S. Army Corps of Engineers is strictly prohibited.
These data are gathered electronically and, as presented, have not undergone any form of quality control. These data are not guaranteed to be valid or correct.
Go to home page.
Go to station list.

Upstream stations:

Downstream station:
Previous Day
Next Day
Current Day
    
SHEF ID:       WFLO2     Webbers Falls Lock & Dam
STATION TYPE:  NAVIGATION LOCK
Normal Pool:  Bottom =   487.00, Top =   490.00

               PRECIP ELEVATION   STORAGE   TW-ELEV    INFLOW   RELEASE  AIR-TEMP  WIND-DIRWIND-SPEED REL-HUMID SOLAR-RAD   VOLTAGE  BAT-LOAD
                   in        ft     ac-ft        ft       cfs       cfs         F       deg       mph         %      W/m2      volt      volt
              Ccp-Rev   Ccp-Rev   Ccp-Rev   Ccp-Rev  Regi-Rev  Regi-Rev   Ccp-Rev   Ccp-Rev   Ccp-Rev   Ccp-Rev   Ccp-Rev   Ccp-Rev   Ccp-Rev
(US/Central)
12/07 00:00      0.00    489.79    167722    459.62      2752         0     36.16    349.30      3.40     82.76      0.00     13.51     13.29
12/07 01:00      0.00    489.72    166926    459.56      1376         0     35.85    339.00      4.80     86.76      0.00     13.51     13.29
12/07 02:00      0.00    489.78    167609    459.54      1697         0     35.22    348.30      6.80     78.77      0.00     13.51     13.29
12/07 03:00      0.00    489.82    168063    459.40      1929         0     34.99    343.60     10.10     66.30      0.00     13.51     13.29
12/07 04:00      0.00    489.92    169200    459.39      1929         0     34.07    349.60     13.20     67.68      0.00     13.51     13.29
12/07 05:00      0.00    489.96    169655    459.34      1929         0     31.46    349.40     14.00     61.40      0.00     13.50     13.29
12/07 06:00      0.00    489.87    168632    459.51       828         0     29.28    351.00     12.60     59.12      0.00     13.50     13.29
12/07 07:00      0.00    489.55    164993    459.84      5050     17900     28.45    352.10     10.30     61.02      0.00     13.50     13.29
12/07 08:00      0.00    489.57    165221    459.85     10862     17900     26.65    346.50     12.40     61.14      6.70     13.50     13.29
12/07 09:00      0.00    489.61    165676    459.57     10862     17900     26.02    357.40      9.00     62.12    152.10     13.50     13.29
12/07 10:00      0.00    489.84    168291    459.21     10862         0     27.03    346.90      9.90     59.23    341.00     13.50     13.29
12/07 11:00      0.00    489.88    168746    459.30     10862         0     27.97    354.40     10.20     51.41    494.70     13.50     13.29
12/07 12:00      0.00    489.83    168177    459.87      9327         0     29.57    351.70     10.00     46.36    606.20     13.51     13.29
12/07 13:00      0.00    489.70    166699    460.21      4484     18480     31.08    335.10     12.10     45.83    623.70     13.50     13.05
12/07 14:00      0.00    489.68    166472    460.21      4484     18480     32.41    337.10     10.50     41.60    577.60     13.51     13.29
12/07 15:00      0.00    489.60    165562    459.98      4484     18480     33.62    334.30     11.10     40.65    463.70     13.51     13.29
12/07 16:00      0.00    489.51    164539    459.95      5967     18480     34.02    337.40     10.70     38.51    294.90     13.51     13.29
12/07 17:00      0.00    489.37    162947    460.02      4460     18480     33.35    340.70      9.40     38.36     52.10     13.51     13.29
12/07 18:00      0.00    489.18    160787    460.17      4759     18480     32.31    341.90      7.60     40.03      0.00     13.51     13.29
12/07 19:00      0.00    489.09    159763    459.98      6135     18480     31.51    340.60      6.20     43.64      0.00     13.51     13.29
12/07 20:00      0.00    489.23    161355    459.63      9712         0     30.18    344.50      4.50     48.13      0.00     13.51     13.29
12/07 21:00      0.00    489.28    161924    459.70     10156         0     27.59     28.10      1.60     51.77      0.00     13.51     13.29
12/07 22:00      0.00    489.41    163402    459.95      8655         0     23.05     56.30      1.90     58.20      0.00     13.51     13.29
12/07 23:00      0.00    489.48    164198    459.87      7154         0     21.87     57.40      1.80     63.45      0.00     13.50     13.29